sensor_id;sensor_type;location;lat;lon;timestamp;temperature;humidity
6986;DHT22;3533;51.246;6.850;2024-01-30T00:01:24;18.80;40.70
6986;DHT22;3533;51.246;6.850;2024-01-30T00:03:50;18.90;40.80
6986;DHT22;3533;51.246;6.850;2024-01-30T00:06:19;18.80;40.70
6986;DHT22;3533;51.246;6.850;2024-01-30T00:08:46;18.80;40.70
6986;DHT22;3533;51.246;6.850;2024-01-30T00:11:14;18.90;40.80
6986;DHT22;3533;51.246;6.850;2024-01-30T00:13:39;18.90;40.80
6986;DHT22;3533;51.246;6.850;2024-01-30T00:16:05;18.80;40.70
6986;DHT22;3533;51.246;6.850;2024-01-30T00:18:31;18.90;40.80
6986;DHT22;3533;51.246;6.850;2024-01-30T00:20:56;18.90;40.80
6986;DHT22;3533;51.246;6.850;2024-01-30T00:23:22;18.90;40.80
6986;DHT22;3533;51.246;6.850;2024-01-30T00:25:47;18.80;40.70
6986;DHT22;3533;51.246;6.850;2024-01-30T00:28:13;18.80;40.70
6986;DHT22;3533;51.246;6.850;2024-01-30T00:30:39;18.90;40.80
6986;DHT22;3533;51.246;6.850;2024-01-30T00:33:04;18.90;40.80
6986;DHT22;3533;51.246;6.850;2024-01-30T00:35:30;18.80;40.70
6986;DHT22;3533;51.246;6.850;2024-01-30T00:37:55;18.90;40.80
6986;DHT22;3533;51.246;6.850;2024-01-30T00:40:21;18.80;40.70
6986;DHT22;3533;51.246;6.850;2024-01-30T00:42:46;18.80;40.70
6986;DHT22;3533;51.246;6.850;2024-01-30T00:45:14;18.80;40.70
6986;DHT22;3533;51.246;6.850;2024-01-30T00:47:39;18.90;40.80
6986;DHT22;3533;51.246;6.850;2024-01-30T00:50:05;18.80;40.70
6986;DHT22;3533;51.246;6.850;2024-01-30T00:52:31;18.80;40.70
6986;DHT22;3533;51.246;6.850;2024-01-30T00:54:58;18.80;40.70
6986;DHT22;3533;51.246;6.850;2024-01-30T00:57:24;18.80;40.70
6986;DHT22;3533;51.246;6.850;2024-01-30T00:59:49;18.80;40.60
6986;DHT22;3533;51.246;6.850;2024-01-30T01:02:15;18.80;40.70
6986;DHT22;3533;51.246;6.850;2024-01-30T01:04:42;18.90;40.80
6986;DHT22;3533;51.246;6.850;2024-01-30T01:07:08;18.80;40.70
6986;DHT22;3533;51.246;6.850;2024-01-30T01:09:33;18.90;40.80
6986;DHT22;3533;51.246;6.850;2024-01-30T01:11:59;18.90;40.80
6986;DHT22;3533;51.246;6.850;2024-01-30T01:14:25;18.90;40.80
6986;DHT22;3533;51.246;6.850;2024-01-30T01:16:50;18.80;40.70
6986;DHT22;3533;51.246;6.850;2024-01-30T01:19:16;18.80;40.70
6986;DHT22;3533;51.246;6.850;2024-01-30T01:21:41;18.80;40.70
6986;DHT22;3533;51.246;6.850;2024-01-30T01:24:07;18.80;40.70
6986;DHT22;3533;51.246;6.850;2024-01-30T01:26:32;18.90;40.80
6986;DHT22;3533;51.246;6.850;2024-01-30T01:28:58;18.80;40.70
6986;DHT22;3533;51.246;6.850;2024-01-30T01:31:23;18.80;40.70
6986;DHT22;3533;51.246;6.850;2024-01-30T01:33:50;18.80;40.70
6986;DHT22;3533;51.246;6.850;2024-01-30T01:36:16;18.80;40.70
6986;DHT22;3533;51.246;6.850;2024-01-30T01:38:41;18.80;40.80
6986;DHT22;3533;51.246;6.850;2024-01-30T01:41:07;18.80;41.50
6986;DHT22;3533;51.246;6.850;2024-01-30T01:43:32;18.80;40.70
6986;DHT22;3533;51.246;6.850;2024-01-30T01:45:58;18.80;40.70
6986;DHT22;3533;51.246;6.850;2024-01-30T01:48:25;18.80;40.70
6986;DHT22;3533;51.246;6.850;2024-01-30T01:50:51;18.80;40.70
6986;DHT22;3533;51.246;6.850;2024-01-30T01:53:17;18.80;40.80
6986;DHT22;3533;51.246;6.850;2024-01-30T01:55:43;18.80;40.80
6986;DHT22;3533;51.246;6.850;2024-01-30T01:58:09;18.80;40.70
6986;DHT22;3533;51.246;6.850;2024-01-30T02:00:36;18.80;40.80
6986;DHT22;3533;51.246;6.850;2024-01-30T02:03:05;18.80;40.80
6986;DHT22;3533;51.246;6.850;2024-01-30T02:05:32;18.80;40.70
6986;DHT22;3533;51.246;6.850;2024-01-30T02:07:57;18.80;40.80
6986;DHT22;3533;51.246;6.850;2024-01-30T02:10:23;18.80;40.70
6986;DHT22;3533;51.246;6.850;2024-01-30T02:12:49;18.80;40.80
6986;DHT22;3533;51.246;6.850;2024-01-30T02:15:15;18.80;40.80
6986;DHT22;3533;51.246;6.850;2024-01-30T02:17:41;18.80;40.80
6986;DHT22;3533;51.246;6.850;2024-01-30T02:20:06;18.80;40.80
6986;DHT22;3533;51.246;6.850;2024-01-30T02:22:34;18.80;40.80
6986;DHT22;3533;51.246;6.850;2024-01-30T02:25:00;18.80;40.80
6986;DHT22;3533;51.246;6.850;2024-01-30T02:27:26;18.80;40.70
6986;DHT22;3533;51.246;6.850;2024-01-30T02:29:51;18.80;40.80
6986;DHT22;3533;51.246;6.850;2024-01-30T02:32:17;18.80;40.70
6986;DHT22;3533;51.246;6.850;2024-01-30T02:34:42;18.80;40.70
6986;DHT22;3533;51.246;6.850;2024-01-30T02:37:08;18.80;40.70
6986;DHT22;3533;51.246;6.850;2024-01-30T02:39:34;18.80;40.80
6986;DHT22;3533;51.246;6.850;2024-01-30T02:41:59;18.80;40.80
6986;DHT22;3533;51.246;6.850;2024-01-30T02:44:25;18.80;40.80
6986;DHT22;3533;51.246;6.850;2024-01-30T02:46:50;18.80;40.80
6986;DHT22;3533;51.246;6.850;2024-01-30T02:49:16;18.80;40.80
6986;DHT22;3533;51.246;6.850;2024-01-30T02:51:41;18.80;40.70
6986;DHT22;3533;51.246;6.850;2024-01-30T02:54:07;18.80;40.80
6986;DHT22;3533;51.246;6.850;2024-01-30T02:56:33;18.80;40.80
6986;DHT22;3533;51.246;6.850;2024-01-30T02:58:58;18.80;40.80
6986;DHT22;3533;51.246;6.850;2024-01-30T03:01:24;18.80;40.80
6986;DHT22;3533;51.246;6.850;2024-01-30T03:03:50;18.80;40.70
6986;DHT22;3533;51.246;6.850;2024-01-30T03:06:15;18.80;40.80
6986;DHT22;3533;51.246;6.850;2024-01-30T03:08:43;18.80;40.80
6986;DHT22;3533;51.246;6.850;2024-01-30T03:11:08;18.80;40.70
6986;DHT22;3533;51.246;6.850;2024-01-30T03:13:34;18.70;40.80
6986;DHT22;3533;51.246;6.850;2024-01-30T03:15:59;18.80;40.80
6986;DHT22;3533;51.246;6.850;2024-01-30T03:18:25;18.80;40.70
6986;DHT22;3533;51.246;6.850;2024-01-30T03:20:50;18.80;40.80
6986;DHT22;3533;51.246;6.850;2024-01-30T03:23:16;18.70;40.70
6986;DHT22;3533;51.246;6.850;2024-01-30T03:25:41;18.80;40.80
6986;DHT22;3533;51.246;6.850;2024-01-30T03:28:07;18.80;40.80
6986;DHT22;3533;51.246;6.850;2024-01-30T03:30:34;18.80;40.80
6986;DHT22;3533;51.246;6.850;2024-01-30T03:32:59;18.80;40.80
6986;DHT22;3533;51.246;6.850;2024-01-30T03:35:25;18.80;40.80
6986;DHT22;3533;51.246;6.850;2024-01-30T03:37:50;18.80;40.80
6986;DHT22;3533;51.246;6.850;2024-01-30T03:40:16;18.80;40.80
6986;DHT22;3533;51.246;6.850;2024-01-30T03:42:41;18.80;40.80
6986;DHT22;3533;51.246;6.850;2024-01-30T03:45:07;18.70;40.80
6986;DHT22;3533;51.246;6.850;2024-01-30T03:47:33;18.80;40.80
6986;DHT22;3533;51.246;6.850;2024-01-30T03:49:58;18.70;40.70
6986;DHT22;3533;51.246;6.850;2024-01-30T03:52:24;18.70;40.70
6986;DHT22;3533;51.246;6.850;2024-01-30T03:54:49;18.70;40.70
6986;DHT22;3533;51.246;6.850;2024-01-30T03:57:15;18.80;40.80
6986;DHT22;3533;51.246;6.850;2024-01-30T03:59:43;18.70;40.70
6986;DHT22;3533;51.246;6.850;2024-01-30T04:02:10;18.80;40.80
6986;DHT22;3533;51.246;6.850;2024-01-30T04:04:36;18.70;40.80
6986;DHT22;3533;51.246;6.850;2024-01-30T04:07:02;18.80;40.80
6986;DHT22;3533;51.246;6.850;2024-01-30T04:09:27;18.70;41.50
6986;DHT22;3533;51.246;6.850;2024-01-30T04:11:54;18.80;40.80
6986;DHT22;3533;51.246;6.850;2024-01-30T04:14:19;18.80;40.80
6986;DHT22;3533;51.246;6.850;2024-01-30T04:16:45;18.70;40.70
6986;DHT22;3533;51.246;6.850;2024-01-30T04:19:10;18.70;40.70
6986;DHT22;3533;51.246;6.850;2024-01-30T04:21:36;18.80;40.80
6986;DHT22;3533;51.246;6.850;2024-01-30T04:24:01;18.70;40.70
6986;DHT22;3533;51.246;6.850;2024-01-30T04:26:27;18.80;40.80
6986;DHT22;3533;51.246;6.850;2024-01-30T04:28:52;18.80;40.80
6986;DHT22;3533;51.246;6.850;2024-01-30T04:31:18;18.80;40.70
6986;DHT22;3533;51.246;6.850;2024-01-30T04:33:44;18.80;40.80
6986;DHT22;3533;51.246;6.850;2024-01-30T04:36:09;18.80;40.70
6986;DHT22;3533;51.246;6.850;2024-01-30T04:38:40;18.80;40.70
6986;DHT22;3533;51.246;6.850;2024-01-30T04:41:06;18.80;40.80
6986;DHT22;3533;51.246;6.850;2024-01-30T04:43:32;18.80;40.70
6986;DHT22;3533;51.246;6.850;2024-01-30T04:45:58;18.80;40.70
6986;DHT22;3533;51.246;6.850;2024-01-30T04:48:23;18.80;40.70
6986;DHT22;3533;51.246;6.850;2024-01-30T04:50:49;18.80;40.70
6986;DHT22;3533;51.246;6.850;2024-01-30T04:53:14;18.80;40.60
6986;DHT22;3533;51.246;6.850;2024-01-30T04:55:40;18.80;40.70
6986;DHT22;3533;51.246;6.850;2024-01-30T04:58:05;18.80;40.60
6986;DHT22;3533;51.246;6.850;2024-01-30T05:00:31;18.80;40.60
6986;DHT22;3533;51.246;6.850;2024-01-30T05:02:56;18.80;40.60
6986;DHT22;3533;51.246;6.850;2024-01-30T05:05:22;18.80;40.70
6986;DHT22;3533;51.246;6.850;2024-01-30T05:07:47;18.90;40.70
6986;DHT22;3533;51.246;6.850;2024-01-30T05:10:13;18.80;40.60
6986;DHT22;3533;51.246;6.850;2024-01-30T05:12:39;18.80;40.60
6986;DHT22;3533;51.246;6.850;2024-01-30T05:15:05;18.90;40.70
6986;DHT22;3533;51.246;6.850;2024-01-30T05:17:31;18.80;40.50
6986;DHT22;3533;51.246;6.850;2024-01-30T05:19:56;18.90;40.60
6986;DHT22;3533;51.246;6.850;2024-01-30T05:22:22;18.90;40.50
6986;DHT22;3533;51.246;6.850;2024-01-30T05:24:47;18.90;40.50
6986;DHT22;3533;51.246;6.850;2024-01-30T05:27:13;18.90;40.50
6986;DHT22;3533;51.246;6.850;2024-01-30T05:29:40;18.90;40.50
6986;DHT22;3533;51.246;6.850;2024-01-30T05:32:06;18.90;40.40
6986;DHT22;3533;51.246;6.850;2024-01-30T05:34:32;18.90;40.50
6986;DHT22;3533;51.246;6.850;2024-01-30T05:36:59;18.90;40.50
6986;DHT22;3533;51.246;6.850;2024-01-30T05:39:24;18.90;40.40
6986;DHT22;3533;51.246;6.850;2024-01-30T05:41:50;18.90;40.40
6986;DHT22;3533;51.246;6.850;2024-01-30T05:44:16;18.90;40.40
6986;DHT22;3533;51.246;6.850;2024-01-30T05:46:42;18.90;40.30
6986;DHT22;3533;51.246;6.850;2024-01-30T05:49:07;18.90;40.30
6986;DHT22;3533;51.246;6.850;2024-01-30T05:51:33;18.90;40.40
6986;DHT22;3533;51.246;6.850;2024-01-30T05:53:58;18.90;40.30
6986;DHT22;3533;51.246;6.850;2024-01-30T05:56:24;18.90;40.30
6986;DHT22;3533;51.246;6.850;2024-01-30T05:58:49;18.90;40.40
6986;DHT22;3533;51.246;6.850;2024-01-30T06:01:18;18.90;40.30
6986;DHT22;3533;51.246;6.850;2024-01-30T06:03:43;18.90;40.30
6986;DHT22;3533;51.246;6.850;2024-01-30T06:06:09;18.90;40.30
6986;DHT22;3533;51.246;6.850;2024-01-30T06:08:35;18.90;40.30
6986;DHT22;3533;51.246;6.850;2024-01-30T06:11:00;18.90;40.30
6986;DHT22;3533;51.246;6.850;2024-01-30T06:13:26;18.90;40.30
6986;DHT22;3533;51.246;6.850;2024-01-30T06:15:52;18.90;40.30
6986;DHT22;3533;51.246;6.850;2024-01-30T06:18:18;18.90;40.30
6986;DHT22;3533;51.246;6.850;2024-01-30T06:20:43;18.90;40.30
6986;DHT22;3533;51.246;6.850;2024-01-30T06:23:09;18.90;40.30
6986;DHT22;3533;51.246;6.850;2024-01-30T06:25:35;19.00;40.30
6986;DHT22;3533;51.246;6.850;2024-01-30T06:28:01;18.90;40.30
6986;DHT22;3533;51.246;6.850;2024-01-30T06:30:26;19.00;40.30
6986;DHT22;3533;51.246;6.850;2024-01-30T06:32:52;19.00;40.40
6986;DHT22;3533;51.246;6.850;2024-01-30T06:35:17;19.00;40.30
6986;DHT22;3533;51.246;6.850;2024-01-30T06:37:43;18.90;40.20
6986;DHT22;3533;51.246;6.850;2024-01-30T06:40:09;19.00;40.30
6986;DHT22;3533;51.246;6.850;2024-01-30T06:42:34;19.00;40.30
6986;DHT22;3533;51.246;6.850;2024-01-30T06:45:00;18.90;40.20
6986;DHT22;3533;51.246;6.850;2024-01-30T06:47:26;18.90;40.20
6986;DHT22;3533;51.246;6.850;2024-01-30T06:49:51;18.90;40.20
6986;DHT22;3533;51.246;6.850;2024-01-30T06:52:17;18.90;40.20
6986;DHT22;3533;51.246;6.850;2024-01-30T06:54:42;18.90;40.30
6986;DHT22;3533;51.246;6.850;2024-01-30T06:57:08;18.90;40.30
6986;DHT22;3533;51.246;6.850;2024-01-30T06:59:37;19.00;40.30
6986;DHT22;3533;51.246;6.850;2024-01-30T07:02:09;19.00;40.40
6986;DHT22;3533;51.246;6.850;2024-01-30T07:04:34;18.90;40.30
6986;DHT22;3533;51.246;6.850;2024-01-30T07:07:00;18.90;40.20
6986;DHT22;3533;51.246;6.850;2024-01-30T07:09:25;18.90;40.20
6986;DHT22;3533;51.246;6.850;2024-01-30T07:11:51;19.00;40.30
6986;DHT22;3533;51.246;6.850;2024-01-30T07:14:18;18.90;40.30
6986;DHT22;3533;51.246;6.850;2024-01-30T07:16:43;18.90;40.20
6986;DHT22;3533;51.246;6.850;2024-01-30T07:19:09;19.00;40.50
6986;DHT22;3533;51.246;6.850;2024-01-30T07:21:34;18.90;40.30
6986;DHT22;3533;51.246;6.850;2024-01-30T07:24:00;18.90;40.30
6986;DHT22;3533;51.246;6.850;2024-01-30T07:26:25;18.90;40.30
6986;DHT22;3533;51.246;6.850;2024-01-30T07:28:51;18.90;40.30
6986;DHT22;3533;51.246;6.850;2024-01-30T07:31:17;19.00;40.50
6986;DHT22;3533;51.246;6.850;2024-01-30T07:33:42;18.90;40.30
6986;DHT22;3533;51.246;6.850;2024-01-30T07:36:08;19.00;40.30
6986;DHT22;3533;51.246;6.850;2024-01-30T07:38:34;18.90;40.20
6986;DHT22;3533;51.246;6.850;2024-01-30T07:40:59;18.90;40.30
6986;DHT22;3533;51.246;6.850;2024-01-30T07:43:25;19.00;40.30
6986;DHT22;3533;51.246;6.850;2024-01-30T07:45:51;18.90;40.30
6986;DHT22;3533;51.246;6.850;2024-01-30T07:48:16;18.90;40.30
6986;DHT22;3533;51.246;6.850;2024-01-30T07:50:42;18.90;40.30
6986;DHT22;3533;51.246;6.850;2024-01-30T07:53:07;18.90;40.30
6986;DHT22;3533;51.246;6.850;2024-01-30T07:55:33;18.90;40.40
6986;DHT22;3533;51.246;6.850;2024-01-30T07:57:59;18.90;40.30
6986;DHT22;3533;51.246;6.850;2024-01-30T08:00:24;18.90;40.30
6986;DHT22;3533;51.246;6.850;2024-01-30T08:02:50;18.90;40.30
6986;DHT22;3533;51.246;6.850;2024-01-30T08:05:16;18.90;40.40
6986;DHT22;3533;51.246;6.850;2024-01-30T08:07:42;18.90;40.30
6986;DHT22;3533;51.246;6.850;2024-01-30T08:10:11;18.90;40.30
6986;DHT22;3533;51.246;6.850;2024-01-30T08:12:37;18.90;40.40
6986;DHT22;3533;51.246;6.850;2024-01-30T08:15:04;18.90;40.30
6986;DHT22;3533;51.246;6.850;2024-01-30T08:17:30;18.90;40.40
6986;DHT22;3533;51.246;6.850;2024-01-30T08:19:55;18.90;40.30
6986;DHT22;3533;51.246;6.850;2024-01-30T08:22:21;18.90;40.40
6986;DHT22;3533;51.246;6.850;2024-01-30T08:24:46;18.90;40.30
6986;DHT22;3533;51.246;6.850;2024-01-30T08:27:12;18.90;40.40
6986;DHT22;3533;51.246;6.850;2024-01-30T08:29:37;18.90;40.40
6986;DHT22;3533;51.246;6.850;2024-01-30T08:32:05;18.90;40.40
6986;DHT22;3533;51.246;6.850;2024-01-30T08:34:31;18.90;40.40
6986;DHT22;3533;51.246;6.850;2024-01-30T08:36:57;18.90;40.30
6986;DHT22;3533;51.246;6.850;2024-01-30T08:39:22;18.90;40.50
6986;DHT22;3533;51.246;6.850;2024-01-30T08:41:48;18.90;40.40
6986;DHT22;3533;51.246;6.850;2024-01-30T08:44:13;18.90;40.40
6986;DHT22;3533;51.246;6.850;2024-01-30T08:46:39;18.80;40.40
6986;DHT22;3533;51.246;6.850;2024-01-30T08:49:04;18.80;40.40
6986;DHT22;3533;51.246;6.850;2024-01-30T08:51:30;18.90;40.50
6986;DHT22;3533;51.246;6.850;2024-01-30T08:53:56;18.80;40.40
6986;DHT22;3533;51.246;6.850;2024-01-30T08:56:22;18.80;40.40
6986;DHT22;3533;51.246;6.850;2024-01-30T08:58:47;18.80;40.40
6986;DHT22;3533;51.246;6.850;2024-01-30T09:01:13;18.90;40.50
6986;DHT22;3533;51.246;6.850;2024-01-30T09:03:39;18.80;40.40
6986;DHT22;3533;51.246;6.850;2024-01-30T09:06:09;18.90;40.60
6986;DHT22;3533;51.246;6.850;2024-01-30T09:08:35;18.90;40.50
6986;DHT22;3533;51.246;6.850;2024-01-30T09:11:01;18.90;40.60
6986;DHT22;3533;51.246;6.850;2024-01-30T09:13:26;18.80;40.40
6986;DHT22;3533;51.246;6.850;2024-01-30T09:15:52;18.80;40.40
6986;DHT22;3533;51.246;6.850;2024-01-30T09:18:18;18.80;40.50
6986;DHT22;3533;51.246;6.850;2024-01-30T09:20:44;18.80;40.50
6986;DHT22;3533;51.246;6.850;2024-01-30T09:23:12;18.80;40.50
6986;DHT22;3533;51.246;6.850;2024-01-30T09:25:38;18.80;40.50
6986;DHT22;3533;51.246;6.850;2024-01-30T09:28:04;18.80;41.30
6986;DHT22;3533;51.246;6.850;2024-01-30T09:30:30;18.80;40.50
6986;DHT22;3533;51.246;6.850;2024-01-30T09:32:55;18.80;40.60
6986;DHT22;3533;51.246;6.850;2024-01-30T09:35:21;18.80;40.60
6986;DHT22;3533;51.246;6.850;2024-01-30T09:37:46;18.80;40.50
6986;DHT22;3533;51.246;6.850;2024-01-30T09:40:12;18.80;40.60
6986;DHT22;3533;51.246;6.850;2024-01-30T09:42:37;18.80;40.50
6986;DHT22;3533;51.246;6.850;2024-01-30T09:45:05;18.80;40.60
6986;DHT22;3533;51.246;6.850;2024-01-30T09:47:44;18.80;40.60
6986;DHT22;3533;51.246;6.850;2024-01-30T09:50:12;18.80;40.60
6986;DHT22;3533;51.246;6.850;2024-01-30T09:52:37;18.80;40.60
6986;DHT22;3533;51.246;6.850;2024-01-30T09:55:04;18.80;40.60
6986;DHT22;3533;51.246;6.850;2024-01-30T09:57:29;18.80;40.60
6986;DHT22;3533;51.246;6.850;2024-01-30T09:59:55;18.80;40.60
6986;DHT22;3533;51.246;6.850;2024-01-30T10:02:21;18.80;40.60
6986;DHT22;3533;51.246;6.850;2024-01-30T10:04:48;18.80;40.60
6986;DHT22;3533;51.246;6.850;2024-01-30T10:07:15;18.80;40.60
6986;DHT22;3533;51.246;6.850;2024-01-30T10:09:41;18.80;40.60
6986;DHT22;3533;51.246;6.850;2024-01-30T10:12:06;18.80;40.60
6986;DHT22;3533;51.246;6.850;2024-01-30T10:14:33;18.80;40.60
6986;DHT22;3533;51.246;6.850;2024-01-30T10:16:58;18.80;40.70
6986;DHT22;3533;51.246;6.850;2024-01-30T10:19:24;18.80;40.60
6986;DHT22;3533;51.246;6.850;2024-01-30T10:21:50;18.80;40.70
6986;DHT22;3533;51.246;6.850;2024-01-30T10:24:15;18.80;40.70
6986;DHT22;3533;51.246;6.850;2024-01-30T10:26:43;18.80;40.70
6986;DHT22;3533;51.246;6.850;2024-01-30T10:29:09;18.80;40.70
6986;DHT22;3533;51.246;6.850;2024-01-30T10:31:35;18.70;40.60
6986;DHT22;3533;51.246;6.850;2024-01-30T10:34:00;18.80;40.70
6986;DHT22;3533;51.246;6.850;2024-01-30T10:36:28;18.80;40.70
6986;DHT22;3533;51.246;6.850;2024-01-30T10:38:56;18.80;40.70
6986;DHT22;3533;51.246;6.850;2024-01-30T10:41:26;18.80;40.70
6986;DHT22;3533;51.246;6.850;2024-01-30T10:44:03;18.80;40.70
6986;DHT22;3533;51.246;6.850;2024-01-30T10:46:33;18.80;40.70
6986;DHT22;3533;51.246;6.850;2024-01-30T10:49:00;18.70;40.70
6986;DHT22;3533;51.246;6.850;2024-01-30T10:51:27;18.80;40.70
6986;DHT22;3533;51.246;6.850;2024-01-30T10:53:53;18.70;40.70
6986;DHT22;3533;51.246;6.850;2024-01-30T10:56:22;18.70;40.70
6986;DHT22;3533;51.246;6.850;2024-01-30T10:58:53;18.80;40.70
6986;DHT22;3533;51.246;6.850;2024-01-30T11:01:20;18.70;40.70
6986;DHT22;3533;51.246;6.850;2024-01-30T11:03:49;18.80;40.70
6986;DHT22;3533;51.246;6.850;2024-01-30T11:06:16;18.80;40.70
6986;DHT22;3533;51.246;6.850;2024-01-30T11:08:44;18.80;40.70
6986;DHT22;3533;51.246;6.850;2024-01-30T11:11:10;18.70;40.60
6986;DHT22;3533;51.246;6.850;2024-01-30T11:13:36;18.80;40.70
6986;DHT22;3533;51.246;6.850;2024-01-30T11:16:05;18.70;40.70
6986;DHT22;3533;51.246;6.850;2024-01-30T11:18:32;18.80;40.80
6986;DHT22;3533;51.246;6.850;2024-01-30T11:20:59;18.70;40.70
6986;DHT22;3533;51.246;6.850;2024-01-30T11:23:30;18.70;40.70
6986;DHT22;3533;51.246;6.850;2024-01-30T11:25:56;18.70;40.70
6986;DHT22;3533;51.246;6.850;2024-01-30T11:28:22;18.70;40.70
6986;DHT22;3533;51.246;6.850;2024-01-30T11:30:48;18.70;40.70
6986;DHT22;3533;51.246;6.850;2024-01-30T11:33:27;18.70;40.70
6986;DHT22;3533;51.246;6.850;2024-01-30T11:35:52;18.70;40.70
6986;DHT22;3533;51.246;6.850;2024-01-30T11:38:18;18.70;40.70
6986;DHT22;3533;51.246;6.850;2024-01-30T11:40:44;18.70;40.70
6986;DHT22;3533;51.246;6.850;2024-01-30T11:43:09;18.70;40.70
6986;DHT22;3533;51.246;6.850;2024-01-30T11:45:36;18.70;40.80
6986;DHT22;3533;51.246;6.850;2024-01-30T11:48:02;18.70;40.70
6986;DHT22;3533;51.246;6.850;2024-01-30T11:50:33;18.70;40.70
6986;DHT22;3533;51.246;6.850;2024-01-30T11:53:02;18.70;40.70
6986;DHT22;3533;51.246;6.850;2024-01-30T11:55:29;18.70;40.70
6986;DHT22;3533;51.246;6.850;2024-01-30T11:57:56;18.70;40.80
6986;DHT22;3533;51.246;6.850;2024-01-30T12:00:22;18.70;40.80
6986;DHT22;3533;51.246;6.850;2024-01-30T12:02:51;18.70;40.80
6986;DHT22;3533;51.246;6.850;2024-01-30T12:05:27;18.70;40.80
6986;DHT22;3533;51.246;6.850;2024-01-30T12:07:53;18.70;40.80
6986;DHT22;3533;51.246;6.850;2024-01-30T12:10:19;18.70;40.80
6986;DHT22;3533;51.246;6.850;2024-01-30T12:12:49;18.70;40.80
6986;DHT22;3533;51.246;6.850;2024-01-30T12:15:15;18.70;40.80
6986;DHT22;3533;51.246;6.850;2024-01-30T12:17:41;18.70;40.80
6986;DHT22;3533;51.246;6.850;2024-01-30T12:20:11;18.70;40.80
6986;DHT22;3533;51.246;6.850;2024-01-30T12:22:42;18.70;40.80
6986;DHT22;3533;51.246;6.850;2024-01-30T12:25:09;18.70;40.90
6986;DHT22;3533;51.246;6.850;2024-01-30T12:27:35;18.70;40.90
6986;DHT22;3533;51.246;6.850;2024-01-30T12:30:00;18.70;40.90
6986;DHT22;3533;51.246;6.850;2024-01-30T12:32:26;18.70;40.90
6986;DHT22;3533;51.246;6.850;2024-01-30T12:34:55;18.70;40.80
6986;DHT22;3533;51.246;6.850;2024-01-30T12:37:22;18.70;40.90
6986;DHT22;3533;51.246;6.850;2024-01-30T12:39:51;18.70;40.80
6986;DHT22;3533;51.246;6.850;2024-01-30T12:42:17;18.70;40.90
6986;DHT22;3533;51.246;6.850;2024-01-30T12:44:43;18.70;40.90
6986;DHT22;3533;51.246;6.850;2024-01-30T12:47:11;18.70;40.90
6986;DHT22;3533;51.246;6.850;2024-01-30T12:49:36;18.70;40.90
6986;DHT22;3533;51.246;6.850;2024-01-30T12:52:02;18.70;41.40
6986;DHT22;3533;51.246;6.850;2024-01-30T12:54:28;18.70;40.90
6986;DHT22;3533;51.246;6.850;2024-01-30T12:56:53;18.70;40.90
6986;DHT22;3533;51.246;6.850;2024-01-30T12:59:19;18.70;40.90
6986;DHT22;3533;51.246;6.850;2024-01-30T13:01:45;18.70;40.80
6986;DHT22;3533;51.246;6.850;2024-01-30T13:04:10;18.70;40.90
6986;DHT22;3533;51.246;6.850;2024-01-30T13:06:36;18.70;40.90
6986;DHT22;3533;51.246;6.850;2024-01-30T13:09:02;18.70;40.90
6986;DHT22;3533;51.246;6.850;2024-01-30T13:11:28;18.70;40.90
6986;DHT22;3533;51.246;6.850;2024-01-30T13:13:53;18.70;40.90
6986;DHT22;3533;51.246;6.850;2024-01-30T13:16:19;18.70;40.90
6986;DHT22;3533;51.246;6.850;2024-01-30T13:18:44;18.70;40.90
6986;DHT22;3533;51.246;6.850;2024-01-30T13:21:10;18.70;40.90
6986;DHT22;3533;51.246;6.850;2024-01-30T13:23:35;18.70;40.90
6986;DHT22;3533;51.246;6.850;2024-01-30T13:26:01;18.70;40.90
6986;DHT22;3533;51.246;6.850;2024-01-30T13:28:27;18.70;40.90
6986;DHT22;3533;51.246;6.850;2024-01-30T13:30:53;18.70;40.90
6986;DHT22;3533;51.246;6.850;2024-01-30T13:33:18;18.70;40.80
6986;DHT22;3533;51.246;6.850;2024-01-30T13:35:44;18.70;40.90
6986;DHT22;3533;51.246;6.850;2024-01-30T13:38:09;18.70;40.90
6986;DHT22;3533;51.246;6.850;2024-01-30T13:40:35;18.70;40.80
6986;DHT22;3533;51.246;6.850;2024-01-30T13:43:01;18.70;40.90
6986;DHT22;3533;51.246;6.850;2024-01-30T13:45:27;18.70;40.90
6986;DHT22;3533;51.246;6.850;2024-01-30T13:47:52;18.70;40.90
6986;DHT22;3533;51.246;6.850;2024-01-30T13:50:18;18.70;40.80
6986;DHT22;3533;51.246;6.850;2024-01-30T13:52:44;18.70;40.80
6986;DHT22;3533;51.246;6.850;2024-01-30T13:55:09;18.70;40.80
6986;DHT22;3533;51.246;6.850;2024-01-30T13:57:36;18.70;40.80
6986;DHT22;3533;51.246;6.850;2024-01-30T14:00:03;18.70;40.80
6986;DHT22;3533;51.246;6.850;2024-01-30T14:02:32;18.70;40.80
6986;DHT22;3533;51.246;6.850;2024-01-30T14:04:57;18.70;40.80
6986;DHT22;3533;51.246;6.850;2024-01-30T14:07:23;18.70;40.80
6986;DHT22;3533;51.246;6.850;2024-01-30T14:09:49;18.70;40.80
6986;DHT22;3533;51.246;6.850;2024-01-30T14:12:15;18.70;40.80
6986;DHT22;3533;51.246;6.850;2024-01-30T14:14:41;18.70;40.80
6986;DHT22;3533;51.246;6.850;2024-01-30T14:17:07;18.70;40.80
6986;DHT22;3533;51.246;6.850;2024-01-30T14:19:34;18.70;40.90
6986;DHT22;3533;51.246;6.850;2024-01-30T14:21:59;18.70;40.80
6986;DHT22;3533;51.246;6.850;2024-01-30T14:24:25;18.70;40.80
6986;DHT22;3533;51.246;6.850;2024-01-30T14:26:51;18.70;40.90
6986;DHT22;3533;51.246;6.850;2024-01-30T14:29:16;18.70;40.90
6986;DHT22;3533;51.246;6.850;2024-01-30T14:31:42;18.70;40.90
6986;DHT22;3533;51.246;6.850;2024-01-30T14:34:07;18.70;40.90
6986;DHT22;3533;51.246;6.850;2024-01-30T14:36:38;18.70;40.90
6986;DHT22;3533;51.246;6.850;2024-01-30T14:39:04;18.70;40.90
6986;DHT22;3533;51.246;6.850;2024-01-30T14:41:29;18.70;40.90
6986;DHT22;3533;51.246;6.850;2024-01-30T14:43:55;18.70;40.90
6986;DHT22;3533;51.246;6.850;2024-01-30T14:46:21;18.70;40.90
6986;DHT22;3533;51.246;6.850;2024-01-30T14:48:47;18.70;40.90
6986;DHT22;3533;51.246;6.850;2024-01-30T14:51:13;18.70;40.90
6986;DHT22;3533;51.246;6.850;2024-01-30T14:53:39;18.70;40.90
6986;DHT22;3533;51.246;6.850;2024-01-30T14:56:05;18.70;40.90
6986;DHT22;3533;51.246;6.850;2024-01-30T14:58:31;18.70;40.90
6986;DHT22;3533;51.246;6.850;2024-01-30T15:00:57;18.70;40.90
6986;DHT22;3533;51.246;6.850;2024-01-30T15:03:22;18.70;41.00
6986;DHT22;3533;51.246;6.850;2024-01-30T15:05:48;18.70;41.00
6986;DHT22;3533;51.246;6.850;2024-01-30T15:08:13;18.70;40.90
6986;DHT22;3533;51.246;6.850;2024-01-30T15:10:39;18.70;40.90
6986;DHT22;3533;51.246;6.850;2024-01-30T15:13:05;18.70;40.90
6986;DHT22;3533;51.246;6.850;2024-01-30T15:15:30;18.70;40.90
6986;DHT22;3533;51.246;6.850;2024-01-30T15:17:56;18.70;40.90
6986;DHT22;3533;51.246;6.850;2024-01-30T15:20:23;18.70;40.90
6986;DHT22;3533;51.246;6.850;2024-01-30T15:22:48;18.70;40.90
6986;DHT22;3533;51.246;6.850;2024-01-30T15:25:14;18.70;40.90
6986;DHT22;3533;51.246;6.850;2024-01-30T15:27:39;18.70;41.00
6986;DHT22;3533;51.246;6.850;2024-01-30T15:30:06;18.70;41.00
6986;DHT22;3533;51.246;6.850;2024-01-30T15:32:32;18.70;41.00
6986;DHT22;3533;51.246;6.850;2024-01-30T15:34:59;18.70;41.70
6986;DHT22;3533;51.246;6.850;2024-01-30T15:37:28;18.70;41.00
6986;DHT22;3533;51.246;6.850;2024-01-30T15:39:54;18.70;41.00
6986;DHT22;3533;51.246;6.850;2024-01-30T15:42:19;18.70;41.00
6986;DHT22;3533;51.246;6.850;2024-01-30T15:44:45;18.70;41.00
6986;DHT22;3533;51.246;6.850;2024-01-30T15:47:11;18.70;41.00
6986;DHT22;3533;51.246;6.850;2024-01-30T15:49:36;18.70;41.00
6986;DHT22;3533;51.246;6.850;2024-01-30T15:52:02;18.70;41.00
6986;DHT22;3533;51.246;6.850;2024-01-30T15:54:27;18.70;41.10